sensor_id;sensor_type;location;lat;lon;timestamp;temperature;humidity
12911;DHT22;6523;49.758;6.120;2023-05-19T00:01:21;7.00;99.90
12911;DHT22;6523;49.758;6.120;2023-05-19T00:03:52;6.90;99.90
12911;DHT22;6523;49.758;6.120;2023-05-19T00:06:22;7.00;99.90
12911;DHT22;6523;49.758;6.120;2023-05-19T00:08:49;6.90;99.90
12911;DHT22;6523;49.758;6.120;2023-05-19T00:11:18;6.80;99.90
12911;DHT22;6523;49.758;6.120;2023-05-19T00:13:44;6.70;99.90
12911;DHT22;6523;49.758;6.120;2023-05-19T00:16:12;6.50;99.90
12911;DHT22;6523;49.758;6.120;2023-05-19T00:18:38;6.40;99.90
12911;DHT22;6523;49.758;6.120;2023-05-19T00:21:04;6.90;99.90
12911;DHT22;6523;49.758;6.120;2023-05-19T00:23:30;6.90;99.90
12911;DHT22;6523;49.758;6.120;2023-05-19T00:25:55;6.80;99.90
12911;DHT22;6523;49.758;6.120;2023-05-19T00:28:21;6.70;99.90
12911;DHT22;6523;49.758;6.120;2023-05-19T00:30:47;6.90;99.90
12911;DHT22;6523;49.758;6.120;2023-05-19T00:33:12;7.00;99.90
12911;DHT22;6523;49.758;6.120;2023-05-19T00:35:38;6.90;99.90
12911;DHT22;6523;49.758;6.120;2023-05-19T00:38:04;6.30;99.90
12911;DHT22;6523;49.758;6.120;2023-05-19T00:40:31;5.90;99.90
12911;DHT22;6523;49.758;6.120;2023-05-19T00:42:58;5.90;99.90
12911;DHT22;6523;49.758;6.120;2023-05-19T00:45:24;5.70;99.90
12911;DHT22;6523;49.758;6.120;2023-05-19T00:47:50;5.70;99.90
12911;DHT22;6523;49.758;6.120;2023-05-19T00:50:15;5.60;99.90
12911;DHT22;6523;49.758;6.120;2023-05-19T00:52:41;5.70;99.90
12911;DHT22;6523;49.758;6.120;2023-05-19T00:55:07;5.80;99.90
12911;DHT22;6523;49.758;6.120;2023-05-19T00:57:33;5.80;99.90
12911;DHT22;6523;49.758;6.120;2023-05-19T00:59:59;5.70;99.90
12911;DHT22;6523;49.758;6.120;2023-05-19T01:02:25;5.70;99.90
12911;DHT22;6523;49.758;6.120;2023-05-19T01:04:50;6.00;99.90
12911;DHT22;6523;49.758;6.120;2023-05-19T01:07:17;6.00;99.90
12911;DHT22;6523;49.758;6.120;2023-05-19T01:09:44;6.10;99.90
12911;DHT22;6523;49.758;6.120;2023-05-19T01:12:11;6.20;99.90
12911;DHT22;6523;49.758;6.120;2023-05-19T01:14:36;6.30;99.90
12911;DHT22;6523;49.758;6.120;2023-05-19T01:20:08;6.30;99.90
12911;DHT22;6523;49.758;6.120;2023-05-19T01:30:42;5.90;99.90
12911;DHT22;6523;49.758;6.120;2023-05-19T01:33:11;5.80;99.90
12911;DHT22;6523;49.758;6.120;2023-05-19T01:35:39;5.90;99.90
12911;DHT22;6523;49.758;6.120;2023-05-19T01:38:08;5.80;99.90
12911;DHT22;6523;49.758;6.120;2023-05-19T01:40:34;5.80;99.90
12911;DHT22;6523;49.758;6.120;2023-05-19T01:43:01;5.90;99.90
12911;DHT22;6523;49.758;6.120;2023-05-19T01:45:28;5.80;99.90
12911;DHT22;6523;49.758;6.120;2023-05-19T01:47:56;6.10;99.90
12911;DHT22;6523;49.758;6.120;2023-05-19T01:50:22;6.00;99.90
12911;DHT22;6523;49.758;6.120;2023-05-19T01:52:48;5.70;99.90
12911;DHT22;6523;49.758;6.120;2023-05-19T01:55:14;5.50;99.90
12911;DHT22;6523;49.758;6.120;2023-05-19T02:00:53;5.30;99.90
12911;DHT22;6523;49.758;6.120;2023-05-19T02:03:41;5.60;99.90
12911;DHT22;6523;49.758;6.120;2023-05-19T02:14:34;5.20;99.90
12911;DHT22;6523;49.758;6.120;2023-05-19T02:17:03;5.10;99.90
12911;DHT22;6523;49.758;6.120;2023-05-19T02:19:32;5.40;99.90
12911;DHT22;6523;49.758;6.120;2023-05-19T02:21:58;5.30;99.90
12911;DHT22;6523;49.758;6.120;2023-05-19T02:24:23;5.10;99.90
12911;DHT22;6523;49.758;6.120;2023-05-19T02:26:50;4.90;99.90
12911;DHT22;6523;49.758;6.120;2023-05-19T02:29:16;4.70;99.90
12911;DHT22;6523;49.758;6.120;2023-05-19T02:31:41;4.80;99.90
12911;DHT22;6523;49.758;6.120;2023-05-19T02:34:07;5.00;99.90
12911;DHT22;6523;49.758;6.120;2023-05-19T02:36:34;4.90;99.90
12911;DHT22;6523;49.758;6.120;2023-05-19T02:39:01;4.70;99.90
12911;DHT22;6523;49.758;6.120;2023-05-19T02:41:27;4.80;99.90
12911;DHT22;6523;49.758;6.120;2023-05-19T02:43:52;4.80;99.90
12911;DHT22;6523;49.758;6.120;2023-05-19T02:46:18;5.10;99.90
12911;DHT22;6523;49.758;6.120;2023-05-19T02:48:44;5.00;99.90
12911;DHT22;6523;49.758;6.120;2023-05-19T02:51:10;4.70;99.90
12911;DHT22;6523;49.758;6.120;2023-05-19T02:53:35;4.80;99.90
12911;DHT22;6523;49.758;6.120;2023-05-19T02:56:01;4.60;99.90
12911;DHT22;6523;49.758;6.120;2023-05-19T02:58:26;5.00;99.90
12911;DHT22;6523;49.758;6.120;2023-05-19T03:00:52;4.90;99.90
12911;DHT22;6523;49.758;6.120;2023-05-19T03:03:17;4.90;99.90
12911;DHT22;6523;49.758;6.120;2023-05-19T03:05:43;4.80;99.90
12911;DHT22;6523;49.758;6.120;2023-05-19T03:08:08;4.80;99.90
12911;DHT22;6523;49.758;6.120;2023-05-19T03:10:34;4.70;99.90
12911;DHT22;6523;49.758;6.120;2023-05-19T03:13:00;4.50;99.90
12911;DHT22;6523;49.758;6.120;2023-05-19T03:15:26;4.40;99.90
12911;DHT22;6523;49.758;6.120;2023-05-19T03:17:51;4.70;99.90
12911;DHT22;6523;49.758;6.120;2023-05-19T03:20:17;4.50;99.90
12911;DHT22;6523;49.758;6.120;2023-05-19T03:22:43;4.50;99.90
12911;DHT22;6523;49.758;6.120;2023-05-19T03:25:08;4.70;99.90
12911;DHT22;6523;49.758;6.120;2023-05-19T03:27:34;4.70;99.90
12911;DHT22;6523;49.758;6.120;2023-05-19T03:30:00;4.80;99.90
12911;DHT22;6523;49.758;6.120;2023-05-19T03:32:25;5.00;99.90
12911;DHT22;6523;49.758;6.120;2023-05-19T03:34:51;4.80;99.90
12911;DHT22;6523;49.758;6.120;2023-05-19T03:37:16;4.80;99.90
12911;DHT22;6523;49.758;6.120;2023-05-19T03:39:42;4.50;99.90
12911;DHT22;6523;49.758;6.120;2023-05-19T03:42:07;4.50;99.90
12911;DHT22;6523;49.758;6.120;2023-05-19T03:44:33;4.50;99.90
12911;DHT22;6523;49.758;6.120;2023-05-19T03:46:58;4.40;99.90
12911;DHT22;6523;49.758;6.120;2023-05-19T03:49:24;4.30;99.90
12911;DHT22;6523;49.758;6.120;2023-05-19T03:51:50;4.60;99.90
12911;DHT22;6523;49.758;6.120;2023-05-19T03:54:15;4.60;99.90
12911;DHT22;6523;49.758;6.120;2023-05-19T03:56:41;4.60;99.90
12911;DHT22;6523;49.758;6.120;2023-05-19T03:59:07;4.60;99.90
12911;DHT22;6523;49.758;6.120;2023-05-19T04:01:35;4.40;99.90
12911;DHT22;6523;49.758;6.120;2023-05-19T04:04:01;4.30;99.90
12911;DHT22;6523;49.758;6.120;2023-05-19T04:06:26;4.20;99.90
12911;DHT22;6523;49.758;6.120;2023-05-19T04:08:52;4.20;99.90
12911;DHT22;6523;49.758;6.120;2023-05-19T04:11:17;4.20;99.90
12911;DHT22;6523;49.758;6.120;2023-05-19T04:13:46;4.40;99.90
12911;DHT22;6523;49.758;6.120;2023-05-19T04:16:12;4.40;99.90
12911;DHT22;6523;49.758;6.120;2023-05-19T04:18:38;4.30;99.90
12911;DHT22;6523;49.758;6.120;2023-05-19T04:21:03;4.40;99.90
12911;DHT22;6523;49.758;6.120;2023-05-19T04:23:29;4.50;99.90
12911;DHT22;6523;49.758;6.120;2023-05-19T04:25:55;4.60;99.90
12911;DHT22;6523;49.758;6.120;2023-05-19T04:28:22;4.50;99.90
12911;DHT22;6523;49.758;6.120;2023-05-19T04:30:48;4.40;99.90
12911;DHT22;6523;49.758;6.120;2023-05-19T04:33:14;4.40;99.90
12911;DHT22;6523;49.758;6.120;2023-05-19T04:35:40;4.60;99.90
12911;DHT22;6523;49.758;6.120;2023-05-19T04:38:06;4.50;99.90
12911;DHT22;6523;49.758;6.120;2023-05-19T04:40:32;4.50;99.90
12911;DHT22;6523;49.758;6.120;2023-05-19T04:42:57;4.80;99.90
12911;DHT22;6523;49.758;6.120;2023-05-19T04:45:23;4.90;99.90
12911;DHT22;6523;49.758;6.120;2023-05-19T04:47:50;5.00;99.90
12911;DHT22;6523;49.758;6.120;2023-05-19T04:50:17;5.00;99.90
12911;DHT22;6523;49.758;6.120;2023-05-19T04:52:42;4.90;99.90
12911;DHT22;6523;49.758;6.120;2023-05-19T04:55:10;4.90;99.90
12911;DHT22;6523;49.758;6.120;2023-05-19T04:57:35;5.00;99.90
12911;DHT22;6523;49.758;6.120;2023-05-19T05:00:02;5.10;99.90
12911;DHT22;6523;49.758;6.120;2023-05-19T05:02:32;5.30;99.90
12911;DHT22;6523;49.758;6.120;2023-05-19T05:04:58;5.30;99.90
12911;DHT22;6523;49.758;6.120;2023-05-19T05:07:24;5.30;99.90
12911;DHT22;6523;49.758;6.120;2023-05-19T05:09:49;5.40;99.90
12911;DHT22;6523;49.758;6.120;2023-05-19T05:12:16;5.50;99.90
12911;DHT22;6523;49.758;6.120;2023-05-19T05:14:43;5.60;99.90
12911;DHT22;6523;49.758;6.120;2023-05-19T05:17:10;5.70;99.90
12911;DHT22;6523;49.758;6.120;2023-05-19T05:19:36;5.80;99.90
12911;DHT22;6523;49.758;6.120;2023-05-19T05:22:02;5.90;99.90
12911;DHT22;6523;49.758;6.120;2023-05-19T05:24:29;6.00;99.90
12911;DHT22;6523;49.758;6.120;2023-05-19T05:26:54;6.00;99.90
12911;DHT22;6523;49.758;6.120;2023-05-19T05:29:20;6.10;99.90
12911;DHT22;6523;49.758;6.120;2023-05-19T05:31:45;6.20;99.90
12911;DHT22;6523;49.758;6.120;2023-05-19T05:34:11;6.10;99.90
12911;DHT22;6523;49.758;6.120;2023-05-19T05:36:37;6.20;99.90
12911;DHT22;6523;49.758;6.120;2023-05-19T05:39:02;6.30;99.90
12911;DHT22;6523;49.758;6.120;2023-05-19T05:41:29;6.40;99.90
12911;DHT22;6523;49.758;6.120;2023-05-19T05:44:00;6.60;99.90
12911;DHT22;6523;49.758;6.120;2023-05-19T05:46:26;6.80;99.90
12911;DHT22;6523;49.758;6.120;2023-05-19T05:48:51;6.90;99.90
12911;DHT22;6523;49.758;6.120;2023-05-19T05:51:20;6.90;99.90
12911;DHT22;6523;49.758;6.120;2023-05-19T05:53:51;7.00;99.90
12911;DHT22;6523;49.758;6.120;2023-05-19T05:56:17;7.20;99.90
12911;DHT22;6523;49.758;6.120;2023-05-19T05:58:43;7.20;99.90
12911;DHT22;6523;49.758;6.120;2023-05-19T06:01:08;7.30;99.90
12911;DHT22;6523;49.758;6.120;2023-05-19T06:03:39;7.40;99.90
12911;DHT22;6523;49.758;6.120;2023-05-19T06:06:05;7.50;99.90
12911;DHT22;6523;49.758;6.120;2023-05-19T06:08:30;7.70;99.90
12911;DHT22;6523;49.758;6.120;2023-05-19T06:10:56;7.90;99.90
12911;DHT22;6523;49.758;6.120;2023-05-19T06:13:22;8.10;99.90
12911;DHT22;6523;49.758;6.120;2023-05-19T06:15:49;8.20;99.90
12911;DHT22;6523;49.758;6.120;2023-05-19T06:18:15;8.40;99.90
12911;DHT22;6523;49.758;6.120;2023-05-19T06:20:41;8.40;99.90
12911;DHT22;6523;49.758;6.120;2023-05-19T06:23:06;8.60;99.90
12911;DHT22;6523;49.758;6.120;2023-05-19T06:25:32;8.70;99.90
12911;DHT22;6523;49.758;6.120;2023-05-19T06:27:57;8.90;99.90
12911;DHT22;6523;49.758;6.120;2023-05-19T06:30:23;9.00;99.90
12911;DHT22;6523;49.758;6.120;2023-05-19T06:32:48;9.40;99.90
12911;DHT22;6523;49.758;6.120;2023-05-19T06:35:14;9.70;99.90
12911;DHT22;6523;49.758;6.120;2023-05-19T06:37:40;10.00;99.90
12911;DHT22;6523;49.758;6.120;2023-05-19T06:40:06;9.90;99.90
12911;DHT22;6523;49.758;6.120;2023-05-19T06:42:32;10.00;99.90
12911;DHT22;6523;49.758;6.120;2023-05-19T06:44:58;10.30;99.90
12911;DHT22;6523;49.758;6.120;2023-05-19T06:47:23;10.40;99.90
12911;DHT22;6523;49.758;6.120;2023-05-19T06:49:49;10.40;99.90
12911;DHT22;6523;49.758;6.120;2023-05-19T06:52:15;10.70;99.90
12911;DHT22;6523;49.758;6.120;2023-05-19T06:54:41;10.80;99.90
12911;DHT22;6523;49.758;6.120;2023-05-19T06:57:06;10.90;99.90
12911;DHT22;6523;49.758;6.120;2023-05-19T06:59:32;11.10;99.90
12911;DHT22;6523;49.758;6.120;2023-05-19T07:01:58;11.20;99.90
12911;DHT22;6523;49.758;6.120;2023-05-19T07:04:23;11.30;99.90
12911;DHT22;6523;49.758;6.120;2023-05-19T07:06:49;11.40;99.90
12911;DHT22;6523;49.758;6.120;2023-05-19T07:09:15;11.50;99.90
12911;DHT22;6523;49.758;6.120;2023-05-19T07:11:41;11.60;99.90
12911;DHT22;6523;49.758;6.120;2023-05-19T07:14:06;11.60;99.90
12911;DHT22;6523;49.758;6.120;2023-05-19T07:16:32;11.80;99.90
12911;DHT22;6523;49.758;6.120;2023-05-19T07:18:57;11.90;99.90
12911;DHT22;6523;49.758;6.120;2023-05-19T07:21:23;12.10;99.90
12911;DHT22;6523;49.758;6.120;2023-05-19T07:23:48;12.20;99.90
12911;DHT22;6523;49.758;6.120;2023-05-19T07:26:14;12.30;99.90
12911;DHT22;6523;49.758;6.120;2023-05-19T07:28:40;12.50;99.90
12911;DHT22;6523;49.758;6.120;2023-05-19T07:31:07;12.60;99.90
12911;DHT22;6523;49.758;6.120;2023-05-19T07:33:32;12.80;99.90
12911;DHT22;6523;49.758;6.120;2023-05-19T07:35:58;12.80;99.90
12911;DHT22;6523;49.758;6.120;2023-05-19T07:38:23;12.80;99.90
12911;DHT22;6523;49.758;6.120;2023-05-19T07:40:49;12.90;99.90
12911;DHT22;6523;49.758;6.120;2023-05-19T07:43:14;13.00;99.90
12911;DHT22;6523;49.758;6.120;2023-05-19T07:45:40;13.10;99.90
12911;DHT22;6523;49.758;6.120;2023-05-19T07:48:06;13.10;99.90
12911;DHT22;6523;49.758;6.120;2023-05-19T07:50:32;13.20;99.90
12911;DHT22;6523;49.758;6.120;2023-05-19T07:52:57;13.20;99.90
12911;DHT22;6523;49.758;6.120;2023-05-19T07:55:23;13.30;99.90
12911;DHT22;6523;49.758;6.120;2023-05-19T07:57:49;13.40;99.90
12911;DHT22;6523;49.758;6.120;2023-05-19T08:00:15;13.50;99.90
12911;DHT22;6523;49.758;6.120;2023-05-19T08:02:42;13.80;99.90
12911;DHT22;6523;49.758;6.120;2023-05-19T08:05:08;14.20;99.90
12911;DHT22;6523;49.758;6.120;2023-05-19T08:07:34;14.30;99.90
12911;DHT22;6523;49.758;6.120;2023-05-19T08:09:59;14.50;99.90
12911;DHT22;6523;49.758;6.120;2023-05-19T08:12:25;14.70;99.90
12911;DHT22;6523;49.758;6.120;2023-05-19T08:14:50;14.50;99.90
12911;DHT22;6523;49.758;6.120;2023-05-19T08:17:16;14.50;99.90
12911;DHT22;6523;49.758;6.120;2023-05-19T08:19:42;14.80;99.90
12911;DHT22;6523;49.758;6.120;2023-05-19T08:22:08;15.00;99.90
12911;DHT22;6523;49.758;6.120;2023-05-19T08:24:33;15.40;99.90
12911;DHT22;6523;49.758;6.120;2023-05-19T08:26:59;15.40;99.90
12911;DHT22;6523;49.758;6.120;2023-05-19T08:29:25;15.60;99.90
12911;DHT22;6523;49.758;6.120;2023-05-19T08:31:50;15.90;99.90
12911;DHT22;6523;49.758;6.120;2023-05-19T08:34:17;15.80;99.90
12911;DHT22;6523;49.758;6.120;2023-05-19T08:36:43;16.10;99.90
12911;DHT22;6523;49.758;6.120;2023-05-19T08:39:09;16.10;99.90
12911;DHT22;6523;49.758;6.120;2023-05-19T08:41:35;16.20;99.90
12911;DHT22;6523;49.758;6.120;2023-05-19T08:44:01;16.10;99.90
12911;DHT22;6523;49.758;6.120;2023-05-19T08:46:27;16.30;99.90
12911;DHT22;6523;49.758;6.120;2023-05-19T08:48:56;16.50;99.90
12911;DHT22;6523;49.758;6.120;2023-05-19T08:53:57;17.00;99.90
12911;DHT22;6523;49.758;6.120;2023-05-19T08:56:24;17.00;99.90
12911;DHT22;6523;49.758;6.120;2023-05-19T08:58:51;17.10;99.90
12911;DHT22;6523;49.758;6.120;2023-05-19T09:01:18;17.20;99.90
12911;DHT22;6523;49.758;6.120;2023-05-19T09:03:45;17.00;99.90
12911;DHT22;6523;49.758;6.120;2023-05-19T09:06:11;17.40;99.90
12911;DHT22;6523;49.758;6.120;2023-05-19T09:08:40;17.60;99.90
12911;DHT22;6523;49.758;6.120;2023-05-19T09:11:07;17.60;99.90
12911;DHT22;6523;49.758;6.120;2023-05-19T09:13:33;17.80;99.90
12911;DHT22;6523;49.758;6.120;2023-05-19T09:15:59;18.00;99.90
12911;DHT22;6523;49.758;6.120;2023-05-19T09:18:25;17.90;99.90
12911;DHT22;6523;49.758;6.120;2023-05-19T09:20:58;18.30;99.90
12911;DHT22;6523;49.758;6.120;2023-05-19T09:23:27;18.40;99.90
12911;DHT22;6523;49.758;6.120;2023-05-19T09:25:54;18.70;99.90
12911;DHT22;6523;49.758;6.120;2023-05-19T09:28:27;18.80;99.90
12911;DHT22;6523;49.758;6.120;2023-05-19T09:31:05;18.80;99.90
12911;DHT22;6523;49.758;6.120;2023-05-19T09:33:35;18.40;99.90
12911;DHT22;6523;49.758;6.120;2023-05-19T09:36:02;18.90;99.90
12911;DHT22;6523;49.758;6.120;2023-05-19T09:38:30;18.90;99.90
12911;DHT22;6523;49.758;6.120;2023-05-19T09:40:57;18.70;99.90
12911;DHT22;6523;49.758;6.120;2023-05-19T09:43:23;19.00;99.90
12911;DHT22;6523;49.758;6.120;2023-05-19T09:45:54;19.30;99.90
12911;DHT22;6523;49.758;6.120;2023-05-19T09:48:20;19.30;99.90
12911;DHT22;6523;49.758;6.120;2023-05-19T09:50:47;19.40;99.90
12911;DHT22;6523;49.758;6.120;2023-05-19T09:53:13;19.20;99.90
12911;DHT22;6523;49.758;6.120;2023-05-19T09:55:39;19.40;99.90
12911;DHT22;6523;49.758;6.120;2023-05-19T09:58:06;19.30;99.90
12911;DHT22;6523;49.758;6.120;2023-05-19T10:00:31;19.50;99.90
12911;DHT22;6523;49.758;6.120;2023-05-19T10:02:59;19.70;99.90
12911;DHT22;6523;49.758;6.120;2023-05-19T10:05:26;19.60;99.90
12911;DHT22;6523;49.758;6.120;2023-05-19T10:07:53;19.80;99.90
12911;DHT22;6523;49.758;6.120;2023-05-19T10:10:20;19.80;99.90
12911;DHT22;6523;49.758;6.120;2023-05-19T10:12:47;20.10;99.90
12911;DHT22;6523;49.758;6.120;2023-05-19T10:15:14;20.00;99.90
12911;DHT22;6523;49.758;6.120;2023-05-19T10:17:42;20.00;99.90
12911;DHT22;6523;49.758;6.120;2023-05-19T10:20:15;20.00;99.90
12911;DHT22;6523;49.758;6.120;2023-05-19T10:22:43;20.10;99.90
12911;DHT22;6523;49.758;6.120;2023-05-19T10:25:10;20.30;99.90
12911;DHT22;6523;49.758;6.120;2023-05-19T10:28:19;20.30;99.90
12911;DHT22;6523;49.758;6.120;2023-05-19T10:30:52;19.50;99.90
12911;DHT22;6523;49.758;6.120;2023-05-19T10:33:16;20.10;99.90
12911;DHT22;6523;49.758;6.120;2023-05-19T10:39:05;20.80;99.90
12911;DHT22;6523;49.758;6.120;2023-05-19T10:44:45;20.30;99.90
12911;DHT22;6523;49.758;6.120;2023-05-19T10:47:25;20.80;99.90
12911;DHT22;6523;49.758;6.120;2023-05-19T10:49:54;20.70;91.30
12911;DHT22;6523;49.758;6.120;2023-05-19T10:52:24;21.60;99.90
12911;DHT22;6523;49.758;6.120;2023-05-19T10:54:54;22.00;99.90
12911;DHT22;6523;49.758;6.120;2023-05-19T10:57:26;21.90;66.70
12911;DHT22;6523;49.758;6.120;2023-05-19T10:59:54;21.70;89.90
12911;DHT22;6523;49.758;6.120;2023-05-19T11:02:37;21.30;93.70
12911;DHT22;6523;49.758;6.120;2023-05-19T11:05:11;21.50;92.40
12911;DHT22;6523;49.758;6.120;2023-05-19T11:07:40;21.90;98.40
12911;DHT22;6523;49.758;6.120;2023-05-19T11:10:07;21.90;61.90
12911;DHT22;6523;49.758;6.120;2023-05-19T11:12:44;21.70;54.30
12911;DHT22;6523;49.758;6.120;2023-05-19T11:15:14;21.40;73.40
12911;DHT22;6523;49.758;6.120;2023-05-19T11:17:40;21.70;86.30
12911;DHT22;6523;49.758;6.120;2023-05-19T11:20:18;20.30;54.50
12911;DHT22;6523;49.758;6.120;2023-05-19T11:25:50;20.80;68.00
12911;DHT22;6523;49.758;6.120;2023-05-19T11:28:19;21.50;37.00
12911;DHT22;6523;49.758;6.120;2023-05-19T11:30:46;22.00;50.80
12911;DHT22;6523;49.758;6.120;2023-05-19T11:33:16;21.90;34.60
12911;DHT22;6523;49.758;6.120;2023-05-19T11:35:45;21.40;30.10
12911;DHT22;6523;49.758;6.120;2023-05-19T11:38:12;21.30;45.90
12911;DHT22;6523;49.758;6.120;2023-05-19T11:40:39;22.10;47.80
12911;DHT22;6523;49.758;6.120;2023-05-19T11:43:04;21.90;36.60
12911;DHT22;6523;49.758;6.120;2023-05-19T11:45:31;21.90;44.50
12911;DHT22;6523;49.758;6.120;2023-05-19T11:47:57;22.40;40.80
12911;DHT22;6523;49.758;6.120;2023-05-19T11:50:24;22.80;52.70
12911;DHT22;6523;49.758;6.120;2023-05-19T11:52:50;22.60;32.70
12911;DHT22;6523;49.758;6.120;2023-05-19T11:55:19;22.70;35.70
12911;DHT22;6523;49.758;6.120;2023-05-19T11:58:02;23.00;28.30
12911;DHT22;6523;49.758;6.120;2023-05-19T12:00:29;22.60;25.70
12911;DHT22;6523;49.758;6.120;2023-05-19T12:02:55;22.30;34.00
12911;DHT22;6523;49.758;6.120;2023-05-19T12:05:23;23.10;39.20
12911;DHT22;6523;49.758;6.120;2023-05-19T12:07:50;23.40;38.30
12911;DHT22;6523;49.758;6.120;2023-05-19T12:10:21;23.60;26.90
12911;DHT22;6523;49.758;6.120;2023-05-19T12:12:47;23.70;20.70
12911;DHT22;6523;49.758;6.120;2023-05-19T12:15:14;23.50;13.80
12911;DHT22;6523;49.758;6.120;2023-05-19T12:17:40;22.90;2.60
12911;DHT22;6523;49.758;6.120;2023-05-19T12:20:06;23.30;13.20
12911;DHT22;6523;49.758;6.120;2023-05-19T12:22:33;23.40;24.40
12911;DHT22;6523;49.758;6.120;2023-05-19T12:24:59;23.60;17.20
12911;DHT22;6523;49.758;6.120;2023-05-19T12:27:26;24.00;26.00
12911;DHT22;6523;49.758;6.120;2023-05-19T12:29:53;24.00;18.20
12911;DHT22;6523;49.758;6.120;2023-05-19T12:32:23;23.60;22.30
12911;DHT22;6523;49.758;6.120;2023-05-19T12:34:49;23.90;17.60
12911;DHT22;6523;49.758;6.120;2023-05-19T12:37:15;24.00;35.60
12911;DHT22;6523;49.758;6.120;2023-05-19T12:39:41;22.40;17.40
12911;DHT22;6523;49.758;6.120;2023-05-19T12:42:08;22.00;12.50
12911;DHT22;6523;49.758;6.120;2023-05-19T12:44:37;22.00;17.10
12911;DHT22;6523;49.758;6.120;2023-05-19T12:47:04;22.10;10.50
12911;DHT22;6523;49.758;6.120;2023-05-19T12:49:31;21.20;14.50
12911;DHT22;6523;49.758;6.120;2023-05-19T12:52:00;22.00;34.00
12911;DHT22;6523;49.758;6.120;2023-05-19T12:54:26;22.80;13.60
12911;DHT22;6523;49.758;6.120;2023-05-19T12:56:52;23.20;44.80
12911;DHT22;6523;49.758;6.120;2023-05-19T12:59:24;22.30;20.60
12911;DHT22;6523;49.758;6.120;2023-05-19T13:01:55;23.00;27.90
12911;DHT22;6523;49.758;6.120;2023-05-19T13:04:20;23.50;24.60
12911;DHT22;6523;49.758;6.120;2023-05-19T13:06:46;23.70;15.80
12911;DHT22;6523;49.758;6.120;2023-05-19T13:09:14;23.90;10.90
12911;DHT22;6523;49.758;6.120;2023-05-19T13:11:39;24.30;7.30
12911;DHT22;6523;49.758;6.120;2023-05-19T13:14:08;24.20;15.40
12911;DHT22;6523;49.758;6.120;2023-05-19T13:16:33;22.80;13.40
12911;DHT22;6523;49.758;6.120;2023-05-19T13:18:59;21.90;6.80
12911;DHT22;6523;49.758;6.120;2023-05-19T13:21:25;22.90;19.80
12911;DHT22;6523;49.758;6.120;2023-05-19T13:23:50;22.70;12.70
12911;DHT22;6523;49.758;6.120;2023-05-19T13:26:18;20.50;12.60
12911;DHT22;6523;49.758;6.120;2023-05-19T13:28:44;19.60;21.30
12911;DHT22;6523;49.758;6.120;2023-05-19T13:31:09;21.40;50.70
12911;DHT22;6523;49.758;6.120;2023-05-19T13:33:35;23.00;24.50
12911;DHT22;6523;49.758;6.120;2023-05-19T13:36:00;23.50;13.70
12911;DHT22;6523;49.758;6.120;2023-05-19T13:38:26;23.30;14.50
12911;DHT22;6523;49.758;6.120;2023-05-19T13:40:52;23.00;6.90
12911;DHT22;6523;49.758;6.120;2023-05-19T13:43:17;23.30;13.00
12911;DHT22;6523;49.758;6.120;2023-05-19T13:45:43;22.50;12.10
12911;DHT22;6523;49.758;6.120;2023-05-19T13:48:09;22.50;12.30
12911;DHT22;6523;49.758;6.120;2023-05-19T13:50:36;22.90;14.60
12911;DHT22;6523;49.758;6.120;2023-05-19T13:53:01;23.50;10.50
12911;DHT22;6523;49.758;6.120;2023-05-19T13:55:27;23.10;15.10
12911;DHT22;6523;49.758;6.120;2023-05-19T13:57:53;23.10;5.30
12911;DHT22;6523;49.758;6.120;2023-05-19T14:00:19;23.60;20.60
12911;DHT22;6523;49.758;6.120;2023-05-19T14:02:45;23.20;10.50
12911;DHT22;6523;49.758;6.120;2023-05-19T14:05:11;22.30;3.70
12911;DHT22;6523;49.758;6.120;2023-05-19T14:07:37;22.90;15.10
12911;DHT22;6523;49.758;6.120;2023-05-19T14:10:03;22.80;20.40
12911;DHT22;6523;49.758;6.120;2023-05-19T14:12:31;21.20;7.10
12911;DHT22;6523;49.758;6.120;2023-05-19T14:14:56;20.10;14.10
12911;DHT22;6523;49.758;6.120;2023-05-19T14:17:22;20.10;27.90
12911;DHT22;6523;49.758;6.120;2023-05-19T14:19:48;21.60;28.20
12911;DHT22;6523;49.758;6.120;2023-05-19T14:22:13;22.80;26.90
12911;DHT22;6523;49.758;6.120;2023-05-19T14:24:39;23.40;13.90
12911;DHT22;6523;49.758;6.120;2023-05-19T14:27:05;22.90;12.30
12911;DHT22;6523;49.758;6.120;2023-05-19T14:29:31;22.10;9.10
12911;DHT22;6523;49.758;6.120;2023-05-19T14:31:56;23.10;18.30
12911;DHT22;6523;49.758;6.120;2023-05-19T14:34:22;23.40;18.00
12911;DHT22;6523;49.758;6.120;2023-05-19T14:36:47;23.10;7.40
12911;DHT22;6523;49.758;6.120;2023-05-19T14:39:13;23.30;15.90
12911;DHT22;6523;49.758;6.120;2023-05-19T14:41:39;22.90;13.00
12911;DHT22;6523;49.758;6.120;2023-05-19T14:44:04;23.30;11.70
12911;DHT22;6523;49.758;6.120;2023-05-19T14:46:30;23.20;13.40
12911;DHT22;6523;49.758;6.120;2023-05-19T14:48:55;22.80;9.70
12911;DHT22;6523;49.758;6.120;2023-05-19T14:51:21;23.50;14.70
12911;DHT22;6523;49.758;6.120;2023-05-19T14:53:46;23.70;12.30
12911;DHT22;6523;49.758;6.120;2023-05-19T14:56:14;22.50;14.20
12911;DHT22;6523;49.758;6.120;2023-05-19T14:58:40;21.30;17.50
12911;DHT22;6523;49.758;6.120;2023-05-19T15:01:05;22.20;17.40
12911;DHT22;6523;49.758;6.120;2023-05-19T15:03:31;22.60;12.90
12911;DHT22;6523;49.758;6.120;2023-05-19T15:05:56;23.60;24.00
12911;DHT22;6523;49.758;6.120;2023-05-19T15:08:22;23.70;24.50
12911;DHT22;6523;49.758;6.120;2023-05-19T15:10:48;23.40;9.80
12911;DHT22;6523;49.758;6.120;2023-05-19T15:13:14;23.60;10.60
12911;DHT22;6523;49.758;6.120;2023-05-19T15:15:40;22.60;10.80
12911;DHT22;6523;49.758;6.120;2023-05-19T15:18:05;22.10;13.90
12911;DHT22;6523;49.758;6.120;2023-05-19T15:20:31;22.00;23.10
12911;DHT22;6523;49.758;6.120;2023-05-19T15:22:56;22.60;19.70
12911;DHT22;6523;49.758;6.120;2023-05-19T15:25:22;21.30;17.10
12911;DHT22;6523;49.758;6.120;2023-05-19T15:27:47;20.40;25.30
12911;DHT22;6523;49.758;6.120;2023-05-19T15:30:13;20.00;35.40
12911;DHT22;6523;49.758;6.120;2023-05-19T15:32:39;19.90;42.10
12911;DHT22;6523;49.758;6.120;2023-05-19T15:35:04;19.90;44.30
12911;DHT22;6523;49.758;6.120;2023-05-19T15:37:30;19.90;47.70
12911;DHT22;6523;49.758;6.120;2023-05-19T15:39:56;19.80;48.40
12911;DHT22;6523;49.758;6.120;2023-05-19T15:42:21;20.20;55.70
12911;DHT22;6523;49.758;6.120;2023-05-19T15:44:47;20.20;42.80
12911;DHT22;6523;49.758;6.120;2023-05-19T15:47:12;20.20;39.90
12911;DHT22;6523;49.758;6.120;2023-05-19T15:49:38;20.20;41.80
12911;DHT22;6523;49.758;6.120;2023-05-19T15:52:03;20.40;47.00
12911;DHT22;6523;49.758;6.120;2023-05-19T15:54:29;20.10;47.90
12911;DHT22;6523;49.758;6.120;2023-05-19T15:56:55;19.90;45.40
12911;DHT22;6523;49.758;6.120;2023-05-19T15:59:20;19.70;51.00
12911;DHT22;6523;49.758;6.120;2023-05-19T16:01:46;19.60;46.60
12911;DHT22;6523;49.758;6.120;2023-05-19T16:04:11;19.40;54.00
12911;DHT22;6523;49.758;6.120;2023-05-19T16:06:37;19.40;48.90
12911;DHT22;6523;49.758;6.120;2023-05-19T16:09:02;19.30;48.20
12911;DHT22;6523;49.758;6.120;2023-05-19T16:11:28;19.30;50.60
12911;DHT22;6523;49.758;6.120;2023-05-19T16:13:54;19.10;51.20
12911;DHT22;6523;49.758;6.120;2023-05-19T16:16:19;18.90;45.60
12911;DHT22;6523;49.758;6.120;2023-05-19T16:18:45;18.90;54.10
12911;DHT22;6523;49.758;6.120;2023-05-19T16:21:10;18.70;52.80
12911;DHT22;6523;49.758;6.120;2023-05-19T16:23:36;18.80;51.30